Time;durP1;ratioP1;P1;durP2;ratioP2;P2;SDS_P1;SDS_P2;PMS_P1;PMS_P2;Temp;Humidity;BMP_temperature;BMP_pressure;BME280_temperature;BME280_humidity;BME280_pressure;Samples;Min_cycle;Max_cycle;Signal;HPM_P1;HPM_P2
2024/03/25 00:01:06;;;;;;;0.10;0.10;;;;;;;10.04;72.31;99357.28;7365350;19;20080;-64
2024/03/25 00:03:31;;;;;;;0.10;0.10;;;;;;;10.04;71.60;99352.06;7360467;19;20122;-64
2024/03/25 00:05:57;;;;;;;0.10;0.10;;;;;;;9.97;70.91;99324.53;7366256;19;20003;-65
2024/03/25 00:08:23;;;;;;;0.10;0.10;;;;;;;10.08;71.08;99337.94;7364475;19;20347;-64
2024/03/25 00:10:48;;;;;;;0.03;0.03;;;;;;;10.08;71.08;99327.50;7359302;19;20015;-64
2024/03/25 00:13:14;;;;;;;0.10;0.10;;;;;;;10.10;71.94;99319.66;7362785;19;20008;-63
2024/03/25 00:15:39;;;;;;;0.13;0.13;;;;;;;10.10;71.93;99314.44;7362109;19;20034;-63
2024/03/25 00:18:05;;;;;;;0.10;0.10;;;;;;;10.11;72.74;99296.09;7365363;19;19995;-63
2024/03/25 00:20:30;;;;;;;0.10;0.10;;;;;;;10.11;72.61;99293.50;7366358;19;20014;-63
2024/03/25 00:22:56;;;;;;;0.10;0.10;;;;;;;10.16;72.45;99292.44;7364609;19;20417;-61
2024/03/25 00:25:21;;;;;;;0.10;0.10;;;;;;;10.19;71.91;99282.72;7359797;19;20023;-60
2024/03/25 00:27:47;;;;;;;0.10;0.10;;;;;;;10.22;72.61;99276.53;7361158;19;19998;-62
2024/03/25 00:30:13;;;;;;;0.10;0.10;;;;;;;10.24;72.38;99264.28;7357772;19;20003;-61
2024/03/25 00:32:38;;;;;;;0.10;0.10;;;;;;;10.26;72.17;99262.47;7363913;19;19998;-62
2024/03/25 00:35:04;;;;;;;0.10;0.10;;;;;;;10.28;72.40;99261.47;7361192;19;20006;-62
2024/03/25 00:37:30;;;;;;;0.10;0.10;;;;;;;10.31;72.74;99255.28;7366716;19;20647;-62
2024/03/25 00:39:55;;;;;;;0.10;0.10;;;;;;;10.34;72.87;99249.91;7360122;19;20025;-62
2024/03/25 00:42:21;;;;;;;0.10;0.10;;;;;;;10.23;73.52;99215.59;7360449;19;20018;-62
2024/03/25 00:44:46;;;;;;;0.10;0.10;;;;;;;10.39;72.74;99232.28;7362548;19;20042;-62
2024/03/25 00:47:12;;;;;;;0.10;0.10;;;;;;;10.43;73.28;99218.19;7361148;19;20760;-62
2024/03/25 00:49:38;;;;;;;0.00;0.00;;;;;;;10.45;72.83;99224.19;7362147;19;19998;-63
2024/03/25 00:52:04;;;;;;;0.10;0.10;;;;;;;10.47;73.09;99214.53;7360470;19;20002;-62
2024/03/25 00:54:29;;;;;;;0.00;0.00;;;;;;;10.50;73.04;99203.94;7359287;19;20037;-63
2024/03/25 00:56:55;;;;;;;0.10;0.10;;;;;;;10.53;73.29;99209.00;7356553;19;20006;-62
2024/03/25 00:59:20;;;;;;;0.10;0.10;;;;;;;10.56;72.89;99203.66;7363344;19;20348;-62
2024/03/25 01:01:46;;;;;;;0.10;0.10;;;;;;;10.58;73.51;99200.97;7353904;19;20014;-62
2024/03/25 01:04:11;;;;;;;0.10;0.10;;;;;;;10.61;73.29;99183.41;7361654;19;20010;-62
2024/03/25 01:06:37;;;;;;;0.10;0.10;;;;;;;10.63;72.68;99184.16;7358501;19;20002;-63
2024/03/25 01:09:04;;;;;;;0.10;0.10;;;;;;;10.65;72.83;99182.34;7364106;19;20505;-63
2024/03/25 01:11:30;;;;;;;0.10;0.10;;;;;;;10.68;73.38;99178.72;7356907;19;20003;-63
2024/03/25 01:13:56;;;;;;;0.10;0.10;;;;;;;10.69;73.56;99171.75;7363125;19;20589;-62
2024/03/25 01:16:21;;;;;;;0.10;0.10;;;;;;;10.72;73.48;99171.63;7362025;19;20982;-63
2024/03/25 01:18:47;;;;;;;0.10;0.10;;;;;;;10.73;73.79;99163.69;7365174;19;20006;-62
2024/03/25 01:21:12;;;;;;;0.10;0.10;;;;;;;10.75;74.09;99158.41;7365645;19;20003;-63
2024/03/25 01:23:37;;;;;;;0.10;0.10;;;;;;;10.77;73.13;99157.41;7344964;19;19995;-62
2024/03/25 01:26:03;;;;;;;0.10;0.10;;;;;;;10.77;74.04;99146.13;7359748;19;19995;-60
2024/03/25 01:28:28;;;;;;;0.10;0.10;;;;;;;10.79;73.69;99141.66;7367099;19;20003;-63
2024/03/25 01:30:54;;;;;;;0.10;0.10;;;;;;;10.80;73.69;99138.16;7365663;19;20035;-62
2024/03/25 01:33:19;;;;;;;0.10;0.10;;;;;;;10.82;73.69;99137.16;7368936;19;20495;-63
2024/03/25 01:35:45;;;;;;;0.10;0.10;;;;;;;10.84;73.25;99134.44;7369010;19;20002;-62
2024/03/25 01:38:10;;;;;;;0.10;0.10;;;;;;;10.84;73.77;99126.63;7366760;19;20004;-63
2024/03/25 01:40:36;;;;;;;0.10;0.10;;;;;;;10.85;74.07;99136.16;7370581;19;20010;-63
2024/03/25 01:43:03;;;;;;;0.10;0.10;;;;;;;10.87;73.83;99126.47;7368095;19;20041;-61
2024/03/25 01:45:30;;;;;;;0.10;0.10;;;;;;;10.87;74.50;99129.94;7370351;19;20037;-63
2024/03/25 01:47:58;;;;;;;0.10;0.10;;;;;;;10.89;73.84;99127.25;7367297;19;20022;-62
2024/03/25 01:50:24;;;;;;;;;;;;;;;10.94;71.18;99120.03;7367431;19;19999;-62
2024/03/25 01:52:49;;;;;;;0.10;0.10;;;;;;;10.90;73.13;99113.28;7370223;19;20239;-62
2024/03/25 01:55:24;;;;;;;0.10;0.10;;;;;;;10.92;73.49;99108.81;7370299;19;20007;-63
2024/03/25 01:57:49;;;;;;;0.20;0.20;;;;;;;10.90;73.61;99118.50;7371940;19;20002;-63
2024/03/25 02:00:18;;;;;;;0.10;0.10;;;;;;;10.80;73.75;99091.16;7367541;19;20014;-62
2024/03/25 02:02:45;;;;;;;0.10;0.10;;;;;;;10.89;73.03;99106.34;7370084;19;20013;-63
2024/03/25 02:05:11;;;;;;;0.10;0.10;;;;;;;10.76;74.06;99076.56;7368389;19;20006;-63
2024/03/25 02:07:38;;;;;;;0.13;0.13;;;;;;;10.87;73.97;99103.81;7371291;19;20006;-63
2024/03/25 02:10:04;;;;;;;0.10;0.10;;;;;;;10.79;74.00;99089.44;7364394;19;20006;-63
2024/03/25 02:12:31;;;;;;;0.10;0.10;;;;;;;10.83;74.30;99083.16;7368413;19;20007;-63
2024/03/25 02:14:57;;;;;;;0.10;0.10;;;;;;;10.87;73.88;99084.69;7367302;19;20014;-64
2024/03/25 02:17:23;;;;;;;0.10;0.10;;;;;;;10.87;74.33;99077.72;7364397;19;20009;-63
2024/03/25 02:19:49;;;;;;;0.10;0.10;;;;;;;10.88;74.58;99068.94;7365831;19;20010;-63
2024/03/25 02:22:14;;;;;;;0.10;0.10;;;;;;;10.88;74.43;99062.88;7371833;19;20349;-64
2024/03/25 02:24:41;;;;;;;0.10;0.10;;;;;;;10.89;74.81;99056.72;7365768;19;20007;-63
2024/03/25 02:27:08;;;;;;;0.10;0.10;;;;;;;10.89;74.54;99059.34;7367449;19;20015;-63
2024/03/25 02:29:36;;;;;;;0.10;0.10;;;;;;;10.92;74.35;99056.59;7365312;19;20034;-63
2024/03/25 02:32:02;;;;;;;0.10;0.10;;;;;;;10.90;74.47;99048.00;7367396;19;20509;-63
2024/03/25 02:34:27;;;;;;;0.10;0.10;;;;;;;10.89;74.33;99039.28;7364026;19;20002;-64
2024/03/25 02:36:53;;;;;;;0.10;0.10;;;;;;;10.89;74.39;99041.06;7361745;19;20942;-64
2024/03/25 02:39:19;;;;;;;0.10;0.10;;;;;;;10.87;74.69;99028.09;7364829;19;20602;-64
2024/03/25 02:41:46;;;;;;;0.10;0.10;;;;;;;10.88;74.15;99031.53;7367611;19;20023;-64
2024/03/25 02:44:11;;;;;;;0.10;0.10;;;;;;;10.77;74.30;99011.19;7369181;19;20015;-64
2024/03/25 02:46:40;;;;;;;0.10;0.10;;;;;;;10.88;74.25;99016.72;7364023;19;20010;-64
2024/03/25 02:49:05;;;;;;;0.10;0.10;;;;;;;10.86;74.34;99020.34;7367270;19;20010;-64
2024/03/25 02:51:31;;;;;;;0.10;0.10;;;;;;;10.83;74.01;99007.44;7368414;19;20008;-64
2024/03/25 02:53:56;;;;;;;0.10;0.10;;;;;;;10.84;74.58;99014.34;7365318;19;20426;-64
2024/03/25 02:56:22;;;;;;;0.10;0.10;;;;;;;10.64;74.53;98971.84;7368950;19;20002;-64
2024/03/25 02:58:47;;;;;;;0.10;0.10;;;;;;;10.84;74.32;98998.66;7365149;19;20561;-64
2024/03/25 03:01:12;;;;;;;0.10;0.10;;;;;;;10.83;74.96;98996.97;7369818;19;20006;-64
2024/03/25 03:03:38;;;;;;;0.10;0.10;;;;;;;10.78;74.91;98978.09;7363990;19;20384;-65
2024/03/25 03:06:03;;;;;;;0.10;0.10;;;;;;;10.73;74.57;98967.03;7354761;19;20542;-64
2024/03/25 03:08:29;;;;;;;0.10;0.10;;;;;;;10.83;75.06;98976.09;7367134;19;20031;-64
2024/03/25 03:10:54;;;;;;;0.10;0.10;;;;;;;10.83;74.71;98978.72;7366836;19;20010;-63
2024/03/25 03:13:20;;;;;;;0.10;0.10;;;;;;;10.83;74.83;98970.88;7366505;19;20003;-64
2024/03/25 03:15:45;;;;;;;0.10;0.10;;;;;;;10.83;74.37;98965.66;7365612;19;20006;-64
2024/03/25 03:18:11;;;;;;;0.10;0.10;;;;;;;10.70;74.45;98931.50;7361349;19;20003;-64
2024/03/25 03:20:36;;;;;;;0.10;0.10;;;;;;;10.84;74.89;98951.66;7368017;19;20114;-63
2024/03/25 03:23:02;;;;;;;0.10;0.10;;;;;;;10.84;75.22;98956.88;7365120;19;20042;-64
2024/03/25 03:25:29;;;;;;;0.10;0.10;;;;;;;10.85;75.05;98953.38;7367362;19;20010;-63
2024/03/25 03:27:55;;;;;;;0.10;0.10;;;;;;;10.74;74.98;98929.56;7359569;19;20006;-63
2024/03/25 03:30:21;;;;;;;0.10;0.10;;;;;;;10.84;75.63;98942.06;7367943;19;20010;-64
2024/03/25 03:32:46;;;;;;;0.10;0.10;;;;;;;10.84;75.15;98931.63;7364735;19;20015;-63
2024/03/25 03:35:12;;;;;;;0.10;0.10;;;;;;;10.86;75.87;98926.34;7363188;19;20050;-63
2024/03/25 03:37:37;;;;;;;0.10;0.10;;;;;;;10.86;75.54;98924.56;7366044;19;20003;-63
2024/03/25 03:40:05;;;;;;;0.10;0.10;;;;;;;10.87;75.16;98922.78;7364285;19;20006;-63
2024/03/25 03:42:31;;;;;;;0.10;0.10;;;;;;;10.87;75.54;98914.97;7365008;19;20589;-63
2024/03/25 03:44:56;;;;;;;0.10;0.10;;;;;;;10.86;75.87;98908.06;7363834;19;20027;-63
2024/03/25 03:47:22;;;;;;;0.10;0.10;;;;;;;10.89;75.51;98905.28;7366126;19;20002;-63
2024/03/25 03:49:47;;;;;;;0.13;0.13;;;;;;;10.88;75.36;98900.97;7363513;19;20007;-63
2024/03/25 03:52:12;;;;;;;0.20;0.20;;;;;;;10.86;75.48;98892.41;7360405;19;19998;-63
2024/03/25 03:54:38;;;;;;;0.10;0.10;;;;;;;10.89;75.81;98903.50;7365240;19;20062;-63
2024/03/25 03:57:05;;;;;;;0.10;0.10;;;;;;;10.84;76.21;98895.06;7356185;19;20015;-63
2024/03/25 03:59:30;;;;;;;0.10;0.10;;;;;;;10.88;75.72;98896.59;7366735;19;20450;-63
2024/03/25 04:01:57;;;;;;;0.10;0.10;;;;;;;10.88;75.82;98895.75;7366039;19;20066;-63
2024/03/25 04:04:23;;;;;;;0.07;0.07;;;;;;;10.87;75.83;98883.63;7366402;19;20581;-63
2024/03/25 04:06:48;;;;;;;0.10;0.10;;;;;;;10.85;75.54;98882.88;7364580;19;20339;-63
2024/03/25 04:09:14;;;;;;;0.10;0.10;;;;;;;10.80;75.71;98879.66;7364606;19;20030;-63
2024/03/25 04:11:39;;;;;;;0.10;0.10;;;;;;;10.87;76.00;98879.25;7362402;19;20006;-63
2024/03/25 04:14:05;;;;;;;0.10;0.10;;;;;;;10.86;76.03;98887.16;7362344;19;20034;-63
2024/03/25 04:16:31;;;;;;;0.10;0.10;;;;;;;10.73;75.79;98860.00;7339295;19;19995;-63
2024/03/25 04:18:57;;;;;;;0.10;0.10;;;;;;;10.86;75.96;98871.50;7364412;19;20034;-63
2024/03/25 04:21:23;;;;;;;0.10;0.10;;;;;;;10.85;75.30;98875.88;7360816;19;20027;-63
2024/03/25 04:23:49;;;;;;;0.10;0.10;;;;;;;10.84;75.59;98874.19;7360847;19;20025;-63
2024/03/25 04:26:17;;;;;;;0.10;0.10;;;;;;;10.77;75.73;98849.31;7358657;19;20003;-63
2024/03/25 04:28:42;;;;;;;0.10;0.10;;;;;;;10.82;75.62;98859.53;7366060;19;20926;-63
2024/03/25 04:31:08;;;;;;;0.10;0.10;;;;;;;10.69;75.85;98838.44;7365068;19;20074;-64
2024/03/25 04:33:34;;;;;;;0.10;0.10;;;;;;;10.80;75.37;98856.16;7361085;19;20006;-64
2024/03/25 04:36:00;;;;;;;0.10;0.10;;;;;;;10.79;75.82;98847.47;7364819;19;19994;-63
2024/03/25 04:38:26;;;;;;;0.10;0.10;;;;;;;10.79;76.11;98841.41;7366267;19;20010;-63
2024/03/25 04:40:51;;;;;;;0.10;0.10;;;;;;;10.78;75.82;98831.88;7361705;19;20023;-63
2024/03/25 04:43:17;;;;;;;0.10;0.10;;;;;;;10.65;75.89;98816.91;7359250;19;19995;-63
2024/03/25 04:45:42;;;;;;;0.10;0.10;;;;;;;10.75;76.17;98827.69;7364834;19;20277;-63
2024/03/25 04:48:07;;;;;;;0.10;0.10;;;;;;;10.76;76.37;98820.69;7365116;19;20114;-63
2024/03/25 04:50:33;;;;;;;0.10;0.10;;;;;;;10.64;76.48;98804.78;7364078;19;20038;-63
2024/03/25 04:52:59;;;;;;;0.10;0.10;;;;;;;10.64;76.56;98802.16;7362864;19;20006;-63
2024/03/25 04:55:24;;;;;;;0.10;0.10;;;;;;;10.70;76.64;98802.75;7357999;19;20514;-63
2024/03/25 04:57:50;;;;;;;0.00;0.00;;;;;;;10.73;76.45;98815.63;7363434;19;20024;-63
2024/03/25 05:00:15;;;;;;;0.10;0.10;;;;;;;10.72;76.09;98821.78;7363165;19;20011;-62
2024/03/25 05:02:41;;;;;;;0.10;0.10;;;;;;;10.65;76.62;98809.06;7367705;19;20446;-62
2024/03/25 05:05:07;;;;;;;0.15;0.15;;;;;;;10.71;76.90;98814.88;7370185;19;20692;-63
2024/03/25 05:07:33;;;;;;;0.20;0.20;;;;;;;10.69;76.62;98809.72;7371514;19;20014;-63
2024/03/25 05:09:58;;;;;;;0.10;0.10;;;;;;;10.71;75.95;98804.44;7373827;19;20002;-63
2024/03/25 05:12:27;;;;;;;0.10;0.10;;;;;;;10.71;76.26;98799.22;7368911;19;19995;-63
2024/03/25 05:14:52;;;;;;;0.10;0.10;;;;;;;10.70;76.17;98787.09;7369759;19;20002;-63
2024/03/25 05:17:18;;;;;;;0.10;0.10;;;;;;;10.70;75.90;98797.53;7362605;19;20015;-63
2024/03/25 05:19:44;;;;;;;0.10;0.10;;;;;;;10.68;76.48;98784.53;7371888;19;20010;-63
2024/03/25 05:22:09;;;;;;;0.10;0.10;;;;;;;10.67;76.81;98784.63;7367196;19;19998;-63
2024/03/25 05:24:34;;;;;;;0.10;0.10;;;;;;;10.67;76.98;98771.59;7370131;19;20015;-63
2024/03/25 05:27:00;;;;;;;0.10;0.10;;;;;;;10.65;76.71;98774.28;7370368;19;19991;-62
2024/03/25 05:29:26;;;;;;;0.10;0.10;;;;;;;10.62;77.07;98770.06;7369773;19;20035;-63
2024/03/25 05:32:01;;;;;;;0.10;0.10;;;;;;;10.68;76.50;98774.09;7366242;19;20682;-62
2024/03/25 05:34:28;;;;;;;0.10;0.10;;;;;;;10.64;76.81;98768.22;7369595;19;20575;-62
2024/03/25 05:36:54;;;;;;;0.10;0.10;;;;;;;10.64;77.14;98768.22;7374877;19;20745;-62
2024/03/25 05:39:20;;;;;;;0.10;0.10;;;;;;;10.61;76.97;98760.56;7368697;19;19998;-62
2024/03/25 05:41:46;;;;;;;0.10;0.10;;;;;;;10.62;77.23;98764.84;7370797;19;20626;-62
2024/03/25 05:44:12;;;;;;;0.10;0.10;;;;;;;10.58;76.95;98755.47;7368871;19;20003;-62
2024/03/25 05:46:39;;;;;;;0.10;0.10;;;;;;;10.59;77.33;98757.19;7369015;19;20058;-62
2024/03/25 05:49:05;;;;;;;0.10;0.10;;;;;;;10.61;76.99;98757.09;7366655;19;20003;-62
2024/03/25 05:51:33;;;;;;;0.10;0.10;;;;;;;10.60;77.27;98760.63;7370751;19;20010;-62
2024/03/25 05:53:59;;;;;;;0.10;0.10;;;;;;;10.58;77.37;98763.31;7371839;19;20848;-62
2024/03/25 05:56:30;;;;;;;0.10;0.10;;;;;;;10.57;77.22;98772.06;7367353;19;20003;-62
2024/03/25 05:58:59;;;;;;;0.00;0.00;;;;;;;10.56;77.33;98759.97;7370331;19;20018;-62
2024/03/25 06:01:24;;;;;;;0.10;0.10;;;;;;;10.55;77.32;98765.25;7369886;19;20006;-60
2024/03/25 06:03:50;;;;;;;0.10;0.10;;;;;;;10.54;77.41;98755.72;7366337;19;20010;-62
2024/03/25 06:06:15;;;;;;;0.10;0.10;;;;;;;10.53;77.21;98769.72;7368710;19;19998;-62
2024/03/25 06:08:41;;;;;;;0.10;0.10;;;;;;;10.51;77.33;98767.19;7367570;19;20336;-62
2024/03/25 06:11:06;;;;;;;0.10;0.10;;;;;;;10.51;77.25;98761.97;7369512;19;20024;-61
2024/03/25 06:13:31;;;;;;;0.10;0.10;;;;;;;10.51;76.99;98759.34;7366510;19;20016;-62
2024/03/25 06:15:58;;;;;;;0.10;0.10;;;;;;;10.50;77.22;98755.06;7369972;19;20624;-62
2024/03/25 06:18:23;;;;;;;0.10;0.10;;;;;;;10.49;77.33;98748.16;7365389;19;20130;-62
2024/03/25 06:20:49;;;;;;;0.10;0.10;;;;;;;10.49;77.72;98750.78;7370196;19;20025;-62
2024/03/25 06:23:25;;;;;;;0.10;0.10;;;;;;;10.52;76.96;98742.78;7370250;19;20033;-62
2024/03/25 06:25:52;;;;;;;0.10;0.10;;;;;;;10.49;77.55;98740.34;7358413;19;20002;-62
2024/03/25 06:28:18;;;;;;;0.10;0.10;;;;;;;10.48;77.29;98738.63;7366715;19;20820;-63
2024/03/25 06:36:13;;;;;;;0.10;0.10;;;;;;;10.47;76.89;98742.19;7367393;19;20030;-63
2024/03/25 06:38:38;;;;;;;0.10;0.10;;;;;;;10.46;76.82;98737.03;7364506;19;20003;-62
2024/03/25 06:41:04;;;;;;;0.10;0.10;;;;;;;10.43;77.28;98726.75;7368329;19;19998;-63
2024/03/25 06:43:30;;;;;;;0.10;0.10;;;;;;;10.44;77.37;98731.91;7365742;19;20009;-63
2024/03/25 06:45:55;;;;;;;0.10;0.10;;;;;;;10.44;77.57;98721.47;7367133;19;20015;-63
2024/03/25 06:48:20;;;;;;;0.10;0.10;;;;;;;10.36;77.63;98710.59;7367387;19;20023;-63
2024/03/25 06:50:56;;;;;;;0.10;0.10;;;;;;;10.45;77.23;98715.34;7367512;19;20012;-63
2024/03/25 06:53:22;;;;;;;0.10;0.10;;;;;;;10.45;77.75;98710.13;7365067;19;19994;-64
2024/03/25 06:55:58;;;;;;;0.10;0.10;;;;;;;10.49;77.29;98695.13;7367892;19;20002;-63
2024/03/25 06:58:26;;;;;;;0.10;0.10;;;;;;;10.47;77.43;98705.66;7355543;19;20007;-63
2024/03/25 07:00:52;;;;;;;0.10;0.10;;;;;;;10.45;77.41;98699.69;7366474;19;20002;-63
2024/03/25 07:03:18;;;;;;;0.10;0.10;;;;;;;10.04;77.46;98637.50;7365523;19;19999;-63
2024/03/25 07:05:47;;;;;;;0.10;0.10;;;;;;;10.47;77.01;98708.25;7367683;19;20022;-63
2024/03/25 07:08:13;;;;;;;0.10;0.10;;;;;;;10.47;77.13;98708.25;7368094;19;20596;-64
2024/03/25 07:10:41;;;;;;;0.10;0.10;;;;;;;10.48;76.86;98709.94;7364086;19;20550;-64
2024/03/25 07:13:07;;;;;;;0.10;0.10;;;;;;;10.47;77.03;98695.19;7364224;19;20010;-63
2024/03/25 07:15:32;;;;;;;0.10;0.10;;;;;;;10.48;76.75;98690.81;7364471;19;20802;-64
2024/03/25 07:17:58;;;;;;;0.10;0.10;;;;;;;10.47;77.46;98687.38;7365084;19;19995;-63
2024/03/25 07:20:24;;;;;;;0.10;0.10;;;;;;;10.50;77.48;98686.38;7356465;19;20078;-64
2024/03/25 07:22:49;;;;;;;0.10;0.10;;;;;;;10.51;77.50;98683.69;7366911;19;20002;-64
2024/03/25 07:25:15;;;;;;;0.10;0.10;;;;;;;10.53;77.53;98679.22;7360608;19;20536;-64
2024/03/25 07:27:40;;;;;;;0.10;0.10;;;;;;;10.51;77.64;98678.47;7365304;19;20021;-64
2024/03/25 07:30:10;;;;;;;0.10;0.10;;;;;;;10.60;77.95;98682.34;7364793;19;20002;-64
2024/03/25 07:32:35;;;;;;;0.10;0.10;;;;;;;10.60;77.47;98672.75;7365487;19;20367;-64
2024/03/25 07:35:01;;;;;;;0.10;0.10;;;;;;;10.46;77.59;98643.09;7364915;19;20006;-64
2024/03/25 07:37:26;;;;;;;0.10;0.10;;;;;;;10.66;77.47;98679.38;7367036;19;20006;-64
2024/03/25 07:39:52;;;;;;;0.10;0.10;;;;;;;10.68;77.98;98676.69;7364681;19;20409;-64
2024/03/25 07:42:18;;;;;;;0.10;0.10;;;;;;;10.71;77.75;98673.91;7364157;19;20003;-64
2024/03/25 07:44:43;;;;;;;0.10;0.10;;;;;;;10.74;78.27;98673.72;7365700;19;20010;-64
2024/03/25 07:47:09;;;;;;;0.10;0.10;;;;;;;10.77;77.98;98674.41;7360854;19;20017;-64
2024/03/25 07:49:34;;;;;;;0.10;0.10;;;;;;;10.81;77.93;98675.09;7356749;19;20002;-64
2024/03/25 07:52:00;;;;;;;0.10;0.10;;;;;;;10.87;77.58;98674.72;7362345;19;20002;-64
2024/03/25 07:54:26;;;;;;;0.10;0.10;;;;;;;10.85;77.20;98661.78;7361332;19;20030;-64
2024/03/25 07:56:52;;;;;;;0.10;0.10;;;;;;;10.91;77.46;98658.81;7360692;19;21626;-64
2024/03/25 07:59:18;;;;;;;0.10;0.10;;;;;;;10.96;77.41;98647.28;7364254;19;20125;-65
2024/03/25 08:01:43;;;;;;;0.10;0.10;;;;;;;10.97;77.15;98649.78;7361974;19;20058;-64
2024/03/25 08:04:09;;;;;;;0.13;0.13;;;;;;;11.00;76.82;98640.91;7359800;19;21940;-64
2024/03/25 08:06:34;;;;;;;0.10;0.10;;;;;;;11.04;76.65;98640.66;7358725;19;20006;-64
2024/03/25 08:08:59;;;;;;;0.10;0.10;;;;;;;11.06;77.03;98644.03;7332616;19;20014;-65
2024/03/25 08:11:25;;;;;;;0.10;0.10;;;;;;;11.08;76.74;98636.94;7363449;19;20729;-65
2024/03/25 08:13:50;;;;;;;0.10;0.10;;;;;;;11.10;76.75;98634.22;7365935;19;20006;-65
2024/03/25 08:16:16;;;;;;;0.10;0.10;;;;;;;11.15;76.54;98633.06;7364192;19;20017;-65
2024/03/25 08:18:41;;;;;;;0.10;0.10;;;;;;;11.10;76.73;98634.22;7362193;19;20014;-65
2024/03/25 08:21:06;;;;;;;0.10;0.10;;;;;;;11.18;76.52;98643.31;7353675;19;20010;-65
2024/03/25 08:23:32;;;;;;;0.10;0.10;;;;;;;11.22;76.66;98648.38;7364657;19;20010;-65
2024/03/25 08:25:57;;;;;;;0.10;0.10;;;;;;;11.24;76.62;98647.34;7361734;19;20705;-64
2024/03/25 08:28:22;;;;;;;0.10;0.10;;;;;;;11.27;76.95;98651.56;7364871;19;20014;-65
2024/03/25 08:30:48;;;;;;;0.10;0.10;;;;;;;11.31;76.60;98647.84;7362774;19;20006;-65
2024/03/25 08:33:13;;;;;;;0.10;0.10;;;;;;;11.32;76.47;98639.06;7361731;19;20014;-66
2024/03/25 08:35:39;;;;;;;0.10;0.10;;;;;;;11.34;76.48;98648.50;7362034;19;20002;-65
2024/03/25 08:38:04;;;;;;;0.10;0.10;;;;;;;11.23;76.77;98618.69;7363376;19;20014;-65
2024/03/25 08:40:29;;;;;;;0.10;0.10;;;;;;;11.39;76.64;98645.59;7364098;19;19998;-64
2024/03/25 08:42:55;;;;;;;0.10;0.10;;;;;;;11.40;77.00;98642.06;7364270;19;20035;-66
2024/03/25 08:45:20;;;;;;;0.10;0.10;;;;;;;11.41;76.80;98638.53;7362898;19;20450;-65
2024/03/25 08:47:46;;;;;;;0.10;0.10;;;;;;;11.44;77.04;98646.19;7363704;19;19995;-65
2024/03/25 08:50:11;;;;;;;0.10;0.10;;;;;;;11.46;77.14;98644.34;7362696;19;22767;-65
2024/03/25 08:52:39;;;;;;;0.10;0.10;;;;;;;11.49;76.73;98649.34;7357992;19;20006;-66
2024/03/25 08:55:05;;;;;;;0.10;0.10;;;;;;;11.51;76.60;98644.91;7339366;19;20027;-65
2024/03/25 08:57:31;;;;;;;0.10;0.10;;;;;;;11.42;76.69;98627.16;7361359;19;20655;-65
2024/03/25 08:59:56;;;;;;;0.10;0.10;;;;;;;11.50;76.67;98643.19;7350550;19;20015;-64
2024/03/25 09:02:22;;;;;;;0.10;0.10;;;;;;;11.50;76.81;98642.34;7359540;19;20018;-66
2024/03/25 09:04:47;;;;;;;0.10;0.10;;;;;;;11.52;76.85;98646.56;7353974;19;20446;-66
2024/03/25 09:07:14;;;;;;;0.10;0.10;;;;;;;11.54;76.93;98647.31;7357953;19;20101;-65
2024/03/25 09:12:24;;;;;;;0.10;0.10;;;;;;;11.62;77.35;98642.47;7358621;19;20044;-65
2024/03/25 09:14:49;;;;;;;0.10;0.10;;;;;;;11.67;77.53;98634.38;7356577;19;20002;-65
2024/03/25 09:17:16;;;;;;;0.10;0.10;;;;;;;11.72;77.44;98641.94;7362629;19;20479;-65
2024/03/25 09:19:41;;;;;;;0.10;0.10;;;;;;;11.68;77.31;98630.81;7364570;19;20005;-65
2024/03/25 09:22:06;;;;;;;0.10;0.10;;;;;;;11.81;77.15;98642.22;7361780;19;19999;-66
2024/03/25 09:24:32;;;;;;;0.10;0.10;;;;;;;11.83;77.35;98656.06;7360741;19;19999;-65
2024/03/25 09:26:58;;;;;;;0.10;0.10;;;;;;;11.87;77.31;98646.28;7363870;19;20007;-65
2024/03/25 09:29:23;;;;;;;0.10;0.10;;;;;;;11.88;77.29;98653.19;7361609;19;20023;-66
2024/03/25 09:31:49;;;;;;;0.10;0.10;;;;;;;11.92;77.23;98654.69;7360022;19;20086;-65
2024/03/25 09:34:14;;;;;;;0.10;0.10;;;;;;;11.80;76.97;98634.44;7359582;19;20009;-66
2024/03/25 09:36:40;;;;;;;0.10;0.10;;;;;;;11.86;76.80;98639.34;7361953;19;20003;-67
2024/03/25 09:39:05;;;;;;;0.10;0.10;;;;;;;11.89;76.59;98641.78;7361528;19;20006;-65
2024/03/25 09:41:35;;;;;;;0.10;0.10;;;;;;;11.85;76.53;98645.50;7360530;19;20685;-65
2024/03/25 09:44:00;;;;;;;0.10;0.10;;;;;;;11.82;77.01;98640.47;7359070;19;19999;-65
2024/03/25 09:46:26;;;;;;;0.10;0.10;;;;;;;11.81;77.07;98646.59;7357655;19;20074;-65
2024/03/25 09:48:53;;;;;;;0.10;0.10;;;;;;;11.78;77.21;98636.31;7362470;19;20027;-65
2024/03/25 09:51:19;;;;;;;0.10;0.10;;;;;;;11.76;77.14;98632.94;7365973;19;20003;-65
2024/03/25 09:53:45;;;;;;;0.10;0.10;;;;;;;11.76;76.55;98643.41;7368947;19;20461;-65
2024/03/25 09:56:12;;;;;;;0.10;0.10;;;;;;;11.58;77.28;98606.16;7369975;19;20036;-65
2024/03/25 09:58:39;;;;;;;0.10;0.10;;;;;;;11.69;77.20;98635.94;7365284;19;19991;-65
2024/03/25 10:01:05;;;;;;;0.10;0.10;;;;;;;11.65;77.00;98626.59;7368765;19;20006;-65
2024/03/25 10:03:30;;;;;;;0.10;0.10;;;;;;;11.67;77.21;98626.53;7366732;19;20031;-65
2024/03/25 10:05:56;;;;;;;0.10;0.10;;;;;;;11.67;77.20;98631.75;7367874;19;20058;-65
2024/03/25 10:08:22;;;;;;;0.10;0.10;;;;;;;11.66;77.02;98633.53;7369767;19;20006;-65
2024/03/25 10:10:47;;;;;;;0.10;0.10;;;;;;;11.66;77.04;98630.91;7361929;19;20965;-65
2024/03/25 10:13:13;;;;;;;0.10;0.10;;;;;;;11.66;77.71;98623.06;7367593;19;19995;-65
2024/03/25 10:15:38;;;;;;;0.10;0.10;;;;;;;11.65;77.34;98623.97;7362617;19;20099;-65
2024/03/25 10:18:04;;;;;;;0.10;0.10;;;;;;;11.59;77.45;98611.28;7361402;19;20006;-65
2024/03/25 10:20:29;;;;;;;0.10;0.10;;;;;;;11.67;77.39;98626.53;7363474;19;20944;-65
2024/03/25 10:22:54;;;;;;;0.10;0.10;;;;;;;11.71;77.51;98620.19;7359087;19;20044;-65
2024/03/25 10:25:25;;;;;;;0.10;0.10;;;;;;;11.77;77.33;98617.19;7357096;19;20556;-65
2024/03/25 10:27:54;;;;;;;0.10;0.10;;;;;;;11.80;77.80;98624.00;7359945;19;20435;-66
2024/03/25 10:30:19;;;;;;;0.10;0.10;;;;;;;11.78;77.42;98615.41;7365223;19;20427;-65
2024/03/25 10:32:45;;;;;;;0.10;0.10;;;;;;;11.83;77.76;98618.63;7358854;19;20007;-65
2024/03/25 10:35:10;;;;;;;0.10;0.10;;;;;;;11.86;77.63;98613.19;7363875;19;20101;-65
2024/03/25 10:37:36;;;;;;;0.10;0.10;;;;;;;11.89;77.39;98607.78;7368827;19;20003;-65
2024/03/25 10:40:03;;;;;;;0.10;0.10;;;;;;;11.93;77.43;98609.28;7368641;19;20079;-65
2024/03/25 10:42:31;;;;;;;0.10;0.10;;;;;;;11.96;77.44;98601.22;7367806;19;20728;-65
2024/03/25 10:44:57;;;;;;;;;;;;;;;12.02;77.09;98587.78;7367142;19;20341;-65
2024/03/25 10:47:27;;;;;;;0.10;0.10;;;;;;;12.01;77.43;98580.84;7364712;19;19934;-65
2024/03/25 10:50:04;;;;;;;0.10;0.10;;;;;;;12.06;77.45;98586.63;7366612;19;19995;-65
2024/03/25 10:52:31;;;;;;;0.10;0.10;;;;;;;11.92;77.07;98550.06;7364956;19;20033;-65
2024/03/25 10:54:57;;;;;;;0.10;0.10;;;;;;;12.06;77.28;98584.00;7366540;19;21037;-65
2024/03/25 10:57:23;;;;;;;0.10;0.10;;;;;;;12.05;77.58;98579.72;7363547;19;20784;-65
2024/03/25 10:59:49;;;;;;;0.10;0.10;;;;;;;12.08;77.27;98587.38;7365948;19;20003;-64
2024/03/25 11:02:16;;;;;;;0.10;0.10;;;;;;;12.08;77.45;98576.94;7365914;19;20006;-66
2024/03/25 11:04:42;;;;;;;;;;;;;;;12.14;76.98;98581.78;7367694;19;20486;-64
2024/03/25 11:07:14;;;;;;;0.20;0.20;;;;;;;12.13;76.83;98585.31;7368685;19;19919;-64
2024/03/25 11:09:41;;;;;;;0.10;0.10;;;;;;;12.10;77.07;98589.91;7366023;19;20064;-64
2024/03/25 11:12:10;;;;;;;0.03;0.03;;;;;;;12.09;76.64;98591.69;7365146;19;21109;-65
2024/03/25 11:14:36;;;;;;;0.10;0.10;;;;;;;12.01;76.96;98585.25;7364917;19;20023;-64
2024/03/25 11:17:01;;;;;;;0.10;0.10;;;;;;;12.03;76.98;98605.16;7368006;19;20007;-65
2024/03/25 11:19:29;;;;;;;0.10;0.10;;;;;;;12.02;77.18;98608.72;7344071;19;20030;-64
2024/03/25 11:22:09;;;;;;;0.10;0.10;;;;;;;12.03;76.76;98609.53;7364884;19;20010;-64
2024/03/25 11:24:38;;;;;;;0.10;0.10;;;;;;;11.98;77.42;98617.69;7365290;19;20030;-64
2024/03/25 11:27:07;;;;;;;0.10;0.10;;;;;;;11.98;76.93;98617.69;7368912;19;20459;-65
2024/03/25 11:29:33;;;;;;;0.10;0.10;;;;;;;11.95;77.36;98617.84;7360245;19;20762;-64
2024/03/25 11:32:04;;;;;;;0.10;0.10;;;;;;;11.97;77.60;98608.16;7364249;19;19999;-64
2024/03/25 11:34:29;;;;;;;0.10;0.10;;;;;;;11.81;77.58;98586.44;7364689;19;20313;-64
2024/03/25 11:36:58;;;;;;;0.03;0.03;;;;;;;11.85;77.27;98580.13;7366784;19;20542;-64